createdAt,value
2023-02-11T00:00:47.437Z,24.27
2023-02-11T00:05:09.645Z,24.35
2023-02-11T00:09:31.958Z,24.60
2023-02-11T00:13:54.103Z,25.27
2023-02-11T00:18:16.667Z,25.17
2023-02-11T00:22:38.800Z,25.15
2023-02-11T00:27:01.099Z,24.88
2023-02-11T00:31:25.240Z,27.55
2023-02-11T00:35:47.494Z,22.55
2023-02-11T00:40:10.415Z,26.00
2023-02-11T00:44:32.675Z,25.52
2023-02-11T00:48:58.109Z,26.02
2023-02-11T00:53:20.133Z,25.30
2023-02-11T00:57:42.084Z,27.52
2023-02-11T01:02:04.219Z,25.30
2023-02-11T01:06:26.335Z,26.48
2023-02-11T01:11:03.489Z,21.95
2023-02-11T01:15:26.054Z,24.02
2023-02-11T01:19:48.410Z,25.70
2023-02-11T01:24:10.362Z,25.65
2023-02-11T01:28:32.541Z,28.23
2023-02-11T01:32:55.441Z,26.83
2023-02-11T01:37:17.739Z,25.92
2023-02-11T01:41:39.684Z,23.88
2023-02-11T01:46:14.189Z,24.55
2023-02-11T01:50:37.915Z,25.45
2023-02-11T01:55:29.208Z,23.58
2023-02-11T02:00:40.492Z,21.38
2023-02-11T02:05:10.886Z,22.42
2023-02-11T02:09:42.110Z,23.05
2023-02-11T02:14:04.538Z,24.13
2023-02-11T02:18:41.742Z,24.10
2023-02-11T02:23:25.239Z,24.95
2023-02-11T02:28:05.062Z,25.15
2023-02-11T02:32:51.953Z,24.40
2023-02-11T02:37:41.978Z,24.65
2023-02-11T02:42:05.895Z,22.55
2023-02-11T02:46:33.781Z,23.38
2023-02-11T02:51:26.237Z,23.80
2023-02-11T02:56:10.577Z,24.63
2023-02-11T03:01:03.928Z,21.58
2023-02-11T03:06:11.978Z,24.48
2023-02-11T03:10:42.803Z,23.38
2023-02-11T03:15:08.620Z,22.67
2023-02-11T03:19:42.757Z,21.25
2023-02-11T03:24:13.602Z,23.20
2023-02-11T03:29:23.197Z,21.83
2023-02-11T03:34:14.615Z,22.52
2023-02-11T03:38:50.168Z,22.65
2023-02-11T03:43:17.999Z,18.77
2023-02-11T03:47:47.323Z,22.33
2023-02-11T03:52:11.545Z,21.55
2023-02-11T03:56:42.322Z,21.30
2023-02-11T04:01:05.403Z,22.15
2023-02-11T04:05:27.329Z,21.27
2023-02-11T04:09:49.518Z,23.27
2023-02-11T04:14:11.317Z,21.85
2023-02-11T04:18:33.658Z,21.63
2023-02-11T04:22:55.583Z,23.20
2023-02-11T04:27:17.378Z,23.83
2023-02-11T04:31:39.377Z,23.40
2023-02-11T04:36:01.643Z,22.48
2023-02-11T04:40:23.738Z,24.23
2023-02-11T04:44:45.688Z,23.08
2023-02-11T04:49:07.817Z,24.98
2023-02-11T04:53:29.921Z,23.77
2023-02-11T04:57:51.980Z,22.98
2023-02-11T05:02:14.180Z,23.70
2023-02-11T05:06:38.022Z,24.10
2023-02-11T05:11:02.291Z,23.00
2023-02-11T05:15:24.246Z,22.60
2023-02-11T05:19:46.362Z,23.50
2023-02-11T05:24:08.801Z,24.40
2023-02-11T05:28:32.436Z,22.80
2023-02-11T05:32:55.066Z,21.60
2023-02-11T05:37:18.211Z,25.90
2023-02-11T05:41:40.289Z,23.70
2023-02-11T05:46:04.386Z,23.52
2023-02-11T05:50:26.860Z,22.02
2023-02-11T05:54:48.723Z,23.98
2023-02-11T05:59:12.220Z,21.05
2023-02-11T06:03:34.180Z,23.02
2023-02-11T06:07:56.449Z,20.95
2023-02-11T06:12:18.301Z,22.92
2023-02-11T06:16:40.580Z,22.48
2023-02-11T06:21:07.387Z,21.42
2023-02-11T06:25:29.547Z,23.92
2023-02-11T06:29:53.243Z,21.75
2023-02-11T06:34:15.625Z,23.73
2023-02-11T06:38:38.319Z,22.58
2023-02-11T06:43:00.593Z,23.88
2023-02-11T06:47:22.579Z,23.85
2023-02-11T06:51:44.529Z,25.67
2023-02-11T06:56:10.301Z,22.48
2023-02-11T07:00:32.532Z,25.17
2023-02-11T07:04:54.310Z,23.13
2023-02-11T07:09:16.572Z,23.00
2023-02-11T07:13:38.547Z,22.08
2023-02-11T07:18:00.425Z,24.35
2023-02-11T07:22:22.670Z,24.70
2023-02-11T07:26:45.041Z,23.42
2023-02-11T07:31:12.539Z,24.05
2023-02-11T07:35:34.321Z,21.70
2023-02-11T07:39:56.305Z,24.58
2023-02-11T07:44:18.928Z,26.30
2023-02-11T07:48:41.146Z,24.48
2023-02-11T07:53:03.345Z,24.90
2023-02-11T07:57:25.350Z,24.25
2023-02-11T08:01:47.328Z,26.67
2023-02-11T08:06:13.643Z,26.67
2023-02-11T08:10:35.709Z,27.92
2023-02-11T08:14:57.625Z,26.33
2023-02-11T08:19:19.745Z,24.40
2023-02-11T08:23:43.928Z,28.70
2023-02-11T08:28:06.123Z,25.73
2023-02-11T08:32:28.087Z,26.90
2023-02-11T08:36:50.398Z,27.42
2023-02-11T08:41:15.078Z,27.75
2023-02-11T08:45:38.214Z,27.33
2023-02-11T08:50:00.047Z,24.45
2023-02-11T08:54:22.069Z,26.63
2023-02-11T08:58:45.173Z,26.75
2023-02-11T09:03:07.359Z,27.33
2023-02-11T09:07:29.431Z,28.05
2023-02-11T09:11:51.163Z,27.38
2023-02-11T09:16:23.264Z,27.90
2023-02-11T09:20:45.380Z,27.73
2023-02-11T09:25:07.807Z,27.08
2023-02-11T09:29:29.800Z,25.67
2023-02-11T09:33:57.343Z,25.27
2023-02-11T09:38:19.542Z,25.60
2023-02-11T09:42:48.210Z,27.02
2023-02-11T09:47:36.291Z,27.15
2023-02-11T09:52:13.969Z,27.65
2023-02-11T09:56:36.732Z,25.55
2023-02-11T10:01:22.060Z,24.55
2023-02-11T10:06:08.146Z,28.77
2023-02-11T10:10:44.968Z,26.10
2023-02-11T10:15:29.765Z,26.23
2023-02-11T10:20:03.607Z,28.00
2023-02-11T10:24:28.936Z,25.90
2023-02-11T10:28:54.700Z,26.38
2023-02-11T10:34:26.108Z,26.73
2023-02-11T10:38:47.802Z,26.67
2023-02-11T10:43:17.449Z,25.60
2023-02-11T10:47:41.746Z,28.60
2023-02-11T10:52:25.763Z,27.92
2023-02-11T10:56:58.613Z,27.17
2023-02-11T11:01:24.613Z,27.10
2023-02-11T11:05:58.779Z,25.65
2023-02-11T11:10:49.915Z,24.60
2023-02-11T11:15:19.069Z,25.88
2023-02-11T11:19:41.340Z,26.48
2023-02-11T11:24:04.559Z,23.00
2023-02-11T11:28:29.903Z,25.20
2023-02-11T11:32:52.094Z,25.25
2023-02-11T11:37:34.680Z,25.20
2023-02-11T11:42:03.503Z,24.80
2023-02-11T11:46:40.869Z,23.70
2023-02-11T11:51:12.496Z,25.10
2023-02-11T11:55:54.705Z,25.48
2023-02-11T12:00:51.617Z,25.10
2023-02-11T12:05:37.664Z,24.80
2023-02-11T12:10:14.687Z,24.17
2023-02-11T12:15:11.975Z,23.63
2023-02-11T12:20:18.249Z,24.48
2023-02-11T12:25:36.175Z,25.88
2023-02-11T12:30:04.011Z,26.63
2023-02-11T12:34:50.044Z,25.05
2023-02-11T12:39:37.626Z,25.35
2023-02-11T12:44:00.911Z,26.02
2023-02-11T12:49:04.981Z,24.75
2023-02-11T12:53:37.063Z,25.17
2023-02-11T12:58:01.096Z,23.38
2023-02-11T13:02:44.829Z,22.52
2023-02-11T13:07:23.446Z,23.60
2023-02-11T13:11:54.728Z,23.45
2023-02-11T13:16:39.566Z,26.42
2023-02-11T13:21:56.785Z,24.30
2023-02-11T13:26:45.594Z,26.40
2023-02-11T13:31:09.877Z,23.65
2023-02-11T13:35:38.200Z,24.88
2023-02-11T13:40:27.234Z,24.30
2023-02-11T13:44:50.262Z,25.60
2023-02-11T13:49:40.794Z,23.38
2023-02-11T13:54:04.583Z,22.30
2023-02-11T13:58:29.317Z,25.85
2023-02-11T14:03:30.003Z,23.33
2023-02-11T14:08:29.225Z,23.80
2023-02-11T14:13:34.289Z,22.13
2023-02-11T14:17:56.618Z,23.73
2023-02-11T14:22:55.418Z,21.80
2023-02-11T14:27:41.168Z,21.52
2023-02-11T14:32:34.206Z,22.83
2023-02-11T14:37:19.546Z,21.45
2023-02-11T14:41:49.013Z,22.35
2023-02-11T14:46:11.315Z,23.42
2023-02-11T14:50:48.451Z,22.10
2023-02-11T14:55:31.168Z,22.70
2023-02-11T15:00:04.534Z,23.10
2023-02-11T15:04:33.927Z,21.02
2023-02-11T15:09:05.270Z,22.98
2023-02-11T15:13:31.456Z,22.00
2023-02-11T15:17:55.447Z,23.25
2023-02-11T15:22:26.484Z,22.35
2023-02-11T15:27:15.706Z,24.08
2023-02-11T15:31:37.791Z,21.48
2023-02-11T15:36:02.490Z,23.42
2023-02-11T15:40:32.461Z,22.38
2023-02-11T15:45:16.118Z,22.27
2023-02-11T15:49:39.910Z,20.83
2023-02-11T15:54:29.689Z,19.30
2023-02-11T15:58:55.807Z,21.20
2023-02-11T16:03:32.735Z,20.75
2023-02-11T16:07:57.036Z,19.95
2023-02-11T16:12:27.343Z,21.60
2023-02-11T16:16:54.166Z,23.08
2023-02-11T16:21:18.831Z,23.02
2023-02-11T16:25:42.868Z,22.20
2023-02-11T16:30:06.232Z,23.00
2023-02-11T16:34:28.843Z,22.80
2023-02-11T16:38:50.724Z,21.50
2023-02-11T16:43:13.166Z,20.48
2023-02-11T16:47:38.916Z,22.20
2023-02-11T16:52:06.035Z,23.13
2023-02-11T16:56:27.927Z,21.08
2023-02-11T17:00:50.273Z,22.70
2023-02-11T17:05:23.329Z,23.48
2023-02-11T17:09:45.574Z,22.67
2023-02-11T17:14:07.472Z,24.17
2023-02-11T17:18:30.103Z,24.35
2023-02-11T17:22:52.392Z,25.95
2023-02-11T17:27:14.420Z,28.67
2023-02-11T17:31:37.079Z,28.33
2023-02-11T17:35:59.164Z,30.00
2023-02-11T17:40:21.963Z,31.25
2023-02-11T17:44:45.146Z,30.27
2023-02-11T17:49:07.391Z,29.50
2023-02-11T17:53:29.219Z,25.95
2023-02-11T17:57:51.066Z,31.00
2023-02-11T18:02:13.732Z,35.85
2023-02-11T18:06:36.101Z,35.65
2023-02-11T18:10:58.003Z,33.30
2023-02-11T18:15:19.921Z,34.65
2023-02-11T18:19:41.805Z,35.25
2023-02-11T18:24:06.943Z,33.88
2023-02-11T18:28:29.230Z,36.15
2023-02-11T18:32:56.372Z,36.65
2023-02-11T18:37:18.224Z,35.42
2023-02-11T18:41:42.437Z,36.65
2023-02-11T18:46:13.752Z,30.67
2023-02-11T18:50:35.890Z,36.25
2023-02-11T18:54:58.042Z,36.72
2023-02-11T18:59:19.848Z,36.53
2023-02-11T19:03:42.786Z,38.10
2023-02-11T19:08:05.229Z,38.08
2023-02-11T19:12:27.104Z,37.17
2023-02-11T19:16:51.748Z,36.75
2023-02-11T19:21:14.096Z,37.08
2023-02-11T19:25:37.318Z,36.65
2023-02-11T19:29:59.410Z,32.85
2023-02-11T19:34:22.447Z,36.63
2023-02-11T19:38:45.504Z,36.35
2023-02-11T19:43:07.484Z,35.47
2023-02-11T19:47:29.631Z,35.67
2023-02-11T19:51:53.724Z,34.67
2023-02-11T19:56:19.177Z,34.00
2023-02-11T20:00:43.163Z,34.90
2023-02-11T20:05:05.676Z,34.80
2023-02-11T20:09:29.204Z,33.63
2023-02-11T20:13:51.765Z,31.77
2023-02-11T20:18:13.875Z,31.98
2023-02-11T20:22:36.020Z,32.78
2023-02-11T20:26:58.210Z,30.45
2023-02-11T20:31:21.417Z,27.60
2023-02-11T20:35:43.439Z,25.25
2023-02-11T20:40:07.504Z,22.23
2023-02-11T20:44:29.445Z,25.70
2023-02-11T20:48:52.732Z,24.25
2023-02-11T20:53:15.481Z,25.08
2023-02-11T20:57:37.441Z,25.02
2023-02-11T21:01:59.655Z,24.58
2023-02-11T21:06:24.202Z,23.83
2023-02-11T21:10:48.100Z,20.27
2023-02-11T21:15:11.503Z,21.83
2023-02-11T21:19:33.484Z,21.33
2023-02-11T21:23:56.424Z,20.95
2023-02-11T21:28:18.235Z,19.15
2023-02-11T21:32:40.168Z,19.23
2023-02-11T21:37:02.466Z,18.52
2023-02-11T21:41:25.091Z,19.35
2023-02-11T21:45:49.586Z,18.70
2023-02-11T21:50:11.987Z,19.73
2023-02-11T21:54:34.087Z,21.48
2023-02-11T21:58:59.205Z,21.50
2023-02-11T22:03:21.060Z,23.67
2023-02-11T22:07:43.149Z,24.55
2023-02-11T22:12:08.969Z,24.38
2023-02-11T22:16:32.130Z,26.17
2023-02-11T22:21:03.450Z,27.40
2023-02-11T22:25:25.489Z,28.40
2023-02-11T22:29:47.846Z,26.77
2023-02-11T22:34:10.848Z,28.48
2023-02-11T22:38:34.383Z,28.05
2023-02-11T22:42:56.246Z,28.73
2023-02-11T22:47:18.400Z,30.95
2023-02-11T22:51:40.942Z,28.55
2023-02-11T22:56:09.317Z,27.92
2023-02-11T23:00:37.883Z,29.05
2023-02-11T23:05:00.040Z,29.15
2023-02-11T23:09:22.000Z,28.90
2023-02-11T23:13:46.520Z,27.45
2023-02-11T23:18:11.681Z,29.73
2023-02-11T23:22:36.841Z,28.13
2023-02-11T23:26:58.979Z,29.40
2023-02-11T23:31:31.126Z,27.20
2023-02-11T23:35:53.287Z,26.20
2023-02-11T23:40:17.042Z,27.90
2023-02-11T23:44:39.685Z,27.88
2023-02-11T23:49:02.379Z,28.38
2023-02-11T23:53:26.887Z,28.73
2023-02-11T23:57:49.448Z,27.98
